createdAt,value
2022-07-27T00:01:27.865Z,82.36
2022-07-27T00:03:57.188Z,82.86
2022-07-27T00:06:26.624Z,83.97
2022-07-27T00:08:55.473Z,84.12
2022-07-27T00:11:24.803Z,82.83
2022-07-27T00:13:53.806Z,82.46
2022-07-27T00:16:23.627Z,83.00
2022-07-27T00:18:53.835Z,83.16
2022-07-27T00:21:22.846Z,83.84
2022-07-27T00:23:51.827Z,83.79
2022-07-27T00:26:21.371Z,84.05
2022-07-27T00:28:50.889Z,84.93
2022-07-27T00:31:21.962Z,85.75
2022-07-27T00:33:52.822Z,85.89
2022-07-27T00:36:26.661Z,85.94
2022-07-27T00:38:55.712Z,86.29
2022-07-27T00:41:27.332Z,85.96
2022-07-27T00:44:00.929Z,86.14
2022-07-27T00:46:31.079Z,87.14
2022-07-27T00:49:01.828Z,86.70
2022-07-27T00:51:31.449Z,86.75
2022-07-27T00:54:00.765Z,86.48
2022-07-27T00:56:29.753Z,86.33
2022-07-27T00:58:58.903Z,85.85
2022-07-27T01:01:29.876Z,85.83
2022-07-27T01:03:58.873Z,85.96
2022-07-27T01:06:32.711Z,85.75
2022-07-27T01:09:16.679Z,85.70
2022-07-27T01:11:46.097Z,85.31
2022-07-27T01:14:18.082Z,85.19
2022-07-27T01:16:47.742Z,85.04
2022-07-27T01:19:17.094Z,85.85
2022-07-27T01:21:47.211Z,85.69
2022-07-27T01:24:15.956Z,85.09
2022-07-27T01:26:46.395Z,85.46
2022-07-27T01:29:18.032Z,84.48
2022-07-27T01:31:47.350Z,84.81
2022-07-27T01:34:16.420Z,84.56
2022-07-27T01:36:47.447Z,84.59
2022-07-27T01:39:17.388Z,84.81
2022-07-27T01:41:47.364Z,85.00
2022-07-27T01:44:16.961Z,84.64
2022-07-27T01:46:46.772Z,84.19
2022-07-27T01:49:16.608Z,84.13
2022-07-27T01:51:47.591Z,82.92
2022-07-27T01:54:18.213Z,83.30
2022-07-27T01:56:47.038Z,83.59
2022-07-27T01:59:17.285Z,84.16
2022-07-27T02:01:47.856Z,84.17
2022-07-27T02:04:18.428Z,83.97
2022-07-27T02:06:54.977Z,83.56
2022-07-27T02:09:26.234Z,83.99
2022-07-27T02:12:12.708Z,84.01
2022-07-27T02:14:41.461Z,83.08
2022-07-27T02:17:10.589Z,83.27
2022-07-27T02:19:41.158Z,83.13
2022-07-27T02:22:12.899Z,82.98
2022-07-27T02:24:42.060Z,84.05
2022-07-27T02:27:10.946Z,85.75
2022-07-27T02:29:39.945Z,87.10
2022-07-27T02:32:09.617Z,87.95
2022-07-27T02:34:39.162Z,88.25
2022-07-27T02:37:08.371Z,89.38
2022-07-27T02:39:38.665Z,89.70
2022-07-27T02:42:08.255Z,89.95
2022-07-27T02:44:37.300Z,89.80
2022-07-27T02:47:06.202Z,89.90
2022-07-27T02:49:35.253Z,89.53
2022-07-27T02:52:05.238Z,88.74
2022-07-27T02:54:35.509Z,88.27
2022-07-27T02:57:06.341Z,87.84
2022-07-27T02:59:36.835Z,87.98
2022-07-27T03:02:05.554Z,87.80
2022-07-27T03:04:35.452Z,88.35
2022-07-27T03:07:04.322Z,88.49
2022-07-27T03:09:33.728Z,89.12
2022-07-27T03:12:02.878Z,89.03
2022-07-27T03:14:33.172Z,89.17
2022-07-27T03:17:02.528Z,88.85
2022-07-27T03:19:31.951Z,89.55
2022-07-27T03:22:01.124Z,89.22
2022-07-27T03:24:30.318Z,88.14
2022-07-27T03:26:59.254Z,87.48
2022-07-27T03:29:29.454Z,88.71
2022-07-27T03:32:08.903Z,89.04
2022-07-27T03:34:37.738Z,88.81
2022-07-27T03:37:07.826Z,89.84
2022-07-27T03:39:37.756Z,90.00
2022-07-27T03:42:08.010Z,88.64
2022-07-27T03:44:37.364Z,87.86
2022-07-27T03:47:08.886Z,88.13
2022-07-27T03:49:38.023Z,88.08
2022-07-27T03:52:07.362Z,87.96
2022-07-27T03:54:39.512Z,88.35
2022-07-27T03:57:14.805Z,87.05
2022-07-27T03:59:43.899Z,86.98
2022-07-27T04:02:19.777Z,87.99
2022-07-27T04:04:48.799Z,88.21
2022-07-27T04:07:17.898Z,88.11
2022-07-27T04:09:47.282Z,87.11
2022-07-27T04:12:17.363Z,86.27
2022-07-27T04:14:49.297Z,86.13
2022-07-27T04:17:56.035Z,85.16
2022-07-27T04:20:10.692Z,84.84
2022-07-27T04:22:39.518Z,82.64
2022-07-27T04:25:09.465Z,82.44
2022-07-27T04:27:38.360Z,82.98
2022-07-27T04:30:09.939Z,81.46
2022-07-27T04:32:43.380Z,82.04
2022-07-27T04:35:15.599Z,82.76
2022-07-27T04:37:57.897Z,82.63
2022-07-27T04:40:34.307Z,83.26
2022-07-27T04:43:13.030Z,82.74
2022-07-27T04:45:42.857Z,83.50
2022-07-27T04:48:14.143Z,83.06
2022-07-27T04:50:47.245Z,81.52
2022-07-27T04:53:17.633Z,81.22
2022-07-27T04:55:48.355Z,81.37
2022-07-27T04:58:17.892Z,82.00
2022-07-27T05:00:46.736Z,81.78
2022-07-27T05:03:17.274Z,82.03
2022-07-27T05:05:49.883Z,82.47
2022-07-27T05:08:20.885Z,85.08
2022-07-27T05:10:50.212Z,88.41
2022-07-27T05:13:18.967Z,91.72
2022-07-27T05:15:54.502Z,94.06
2022-07-27T05:18:26.877Z,95.69
2022-07-27T05:20:55.673Z,97.11
2022-07-27T05:23:25.136Z,97.42
2022-07-27T05:25:54.228Z,98.17
2022-07-27T05:28:23.120Z,98.77
2022-07-27T05:30:52.099Z,99.12
2022-07-27T05:33:21.319Z,98.57
2022-07-27T05:35:53.425Z,97.75
2022-07-27T05:38:22.530Z,96.39
2022-07-27T05:40:53.696Z,94.52
2022-07-27T05:43:23.201Z,93.07
2022-07-27T05:45:52.144Z,93.64
2022-07-27T05:48:22.073Z,92.54
2022-07-27T05:50:52.399Z,92.71
2022-07-27T05:53:22.952Z,91.78
2022-07-27T05:55:59.381Z,91.17
2022-07-27T05:58:30.447Z,90.05
2022-07-27T06:00:59.861Z,88.97
2022-07-27T06:03:28.872Z,87.18
2022-07-27T06:06:13.695Z,84.98
2022-07-27T06:08:42.912Z,84.50
2022-07-27T06:11:11.648Z,82.84
2022-07-27T06:13:42.117Z,81.98
2022-07-27T06:16:12.445Z,80.99
2022-07-27T06:18:41.957Z,82.35
2022-07-27T06:21:12.173Z,81.63
2022-07-27T06:23:41.378Z,80.38
2022-07-27T06:26:10.600Z,80.43
2022-07-27T06:28:39.853Z,80.48
2022-07-27T06:31:09.014Z,80.67
2022-07-27T06:33:39.009Z,80.68
2022-07-27T06:36:09.153Z,80.80
2022-07-27T06:38:39.956Z,80.64
2022-07-27T06:41:09.719Z,80.58
2022-07-27T06:43:39.059Z,81.38
2022-07-27T06:46:08.043Z,79.95
2022-07-27T06:48:40.503Z,79.57
2022-07-27T06:51:10.897Z,78.67
2022-07-27T06:53:41.411Z,79.39
2022-07-27T06:56:10.201Z,78.86
2022-07-27T06:58:39.605Z,78.38
2022-07-27T07:01:08.495Z,77.06
2022-07-27T07:03:37.598Z,76.54
2022-07-27T07:06:08.262Z,76.60
2022-07-27T07:08:37.448Z,75.25
2022-07-27T07:11:09.692Z,73.22
2022-07-27T07:13:43.247Z,71.81
2022-07-27T07:16:13.946Z,71.25
2022-07-27T07:18:43.300Z,70.43
2022-07-27T07:21:12.263Z,70.10
2022-07-27T07:23:41.239Z,71.80
2022-07-27T07:26:11.623Z,71.03
2022-07-27T07:28:40.621Z,68.54
2022-07-27T07:31:10.309Z,68.87
2022-07-27T07:33:39.296Z,70.57
2022-07-27T07:36:13.147Z,70.85
2022-07-27T07:38:43.740Z,68.61
2022-07-27T07:41:14.778Z,67.83
2022-07-27T07:43:43.981Z,69.20
2022-07-27T07:46:12.712Z,71.40
2022-07-27T07:48:43.622Z,68.03
2022-07-27T07:51:13.263Z,67.34
2022-07-27T07:53:42.355Z,66.81
2022-07-27T07:56:11.160Z,67.34
2022-07-27T07:58:43.433Z,67.80
2022-07-27T08:01:13.450Z,68.07
2022-07-27T08:03:45.091Z,68.19
2022-07-27T08:06:17.628Z,69.77
2022-07-27T08:08:46.525Z,69.75
2022-07-27T08:11:15.758Z,68.34
2022-07-27T08:13:46.243Z,68.06
2022-07-27T08:16:15.502Z,68.80
2022-07-27T08:18:44.489Z,69.15
2022-07-27T08:21:16.440Z,68.84
2022-07-27T08:23:45.373Z,68.69
2022-07-27T08:26:14.592Z,66.53
2022-07-27T08:28:45.378Z,63.31
2022-07-27T08:31:18.922Z,62.53
2022-07-27T08:33:53.701Z,61.58
2022-07-27T08:36:22.461Z,59.65
2022-07-27T08:38:51.388Z,58.47
2022-07-27T08:41:26.621Z,58.96
2022-07-27T08:44:00.264Z,60.27
2022-07-27T08:46:30.346Z,60.56
2022-07-27T08:49:00.446Z,62.15
2022-07-27T08:51:30.529Z,63.42
2022-07-27T08:54:00.727Z,63.98
2022-07-27T08:56:30.540Z,64.97
2022-07-27T08:59:00.985Z,63.91
2022-07-27T09:01:32.859Z,63.71
2022-07-27T09:04:01.838Z,62.18
2022-07-27T09:06:53.193Z,61.40
2022-07-27T09:09:24.235Z,60.79
2022-07-27T09:12:07.846Z,58.47
2022-07-27T09:14:41.027Z,57.53
2022-07-27T09:17:48.067Z,58.85
2022-07-27T09:20:19.338Z,58.90
2022-07-27T09:22:52.684Z,59.80
2022-07-27T09:25:45.263Z,56.83
2022-07-27T09:28:19.184Z,55.86
2022-07-27T09:31:12.105Z,54.59
2022-07-27T09:41:02.030Z,53.16
2022-07-27T09:46:41.790Z,52.07
2022-07-27T09:49:33.456Z,49.25
2022-07-27T09:52:07.745Z,49.32
2022-07-27T09:54:47.651Z,50.48
2022-07-27T09:57:18.895Z,50.77
2022-07-27T09:59:48.225Z,51.71
2022-07-27T10:02:18.620Z,51.38
2022-07-27T10:04:49.575Z,53.99
2022-07-27T10:07:22.566Z,54.48
2022-07-27T10:09:52.626Z,53.89
2022-07-27T10:12:21.677Z,54.49
2022-07-27T10:14:52.386Z,55.76
2022-07-27T10:17:23.449Z,57.61
2022-07-27T10:19:52.728Z,57.74
2022-07-27T10:22:57.092Z,57.03
2022-07-27T10:25:36.479Z,55.71
2022-07-27T10:28:20.577Z,53.09
2022-07-27T10:30:54.530Z,50.56
2022-07-27T10:33:52.441Z,49.18
2022-07-27T10:36:51.134Z,49.87
2022-07-27T10:39:36.743Z,52.22
2022-07-27T10:42:28.837Z,52.16
2022-07-27T10:45:09.033Z,50.40
2022-07-27T10:47:43.602Z,51.13
2022-07-27T10:50:32.225Z,53.53
2022-07-27T10:53:11.042Z,53.29
2022-07-27T10:55:46.253Z,53.94
2022-07-27T10:58:51.908Z,51.85
2022-07-27T11:01:24.748Z,52.11
2022-07-27T11:03:54.454Z,52.04
2022-07-27T11:06:51.724Z,52.07
2022-07-27T11:12:14.412Z,48.77
2022-07-27T11:14:49.641Z,49.26
2022-07-27T11:20:15.877Z,48.75
2022-07-27T11:23:49.528Z,49.79
2022-07-27T11:25:37.411Z,53.14
2022-07-27T11:28:08.628Z,54.13
2022-07-27T11:30:37.970Z,50.97
2022-07-27T11:33:10.254Z,49.67
2022-07-27T11:35:39.093Z,49.29
2022-07-27T11:38:12.545Z,47.82
2022-07-27T11:41:03.055Z,48.91
2022-07-27T11:43:45.632Z,51.45
2022-07-27T11:46:23.033Z,47.27
2022-07-27T11:49:09.322Z,47.24
2022-07-27T11:51:40.822Z,50.13
2022-07-27T11:54:13.708Z,51.67
2022-07-27T11:56:48.440Z,51.23
2022-07-27T11:59:20.510Z,48.29
2022-07-27T12:01:58.834Z,48.63
2022-07-27T12:04:30.367Z,49.73
2022-07-27T12:07:04.914Z,52.67
2022-07-27T12:09:40.684Z,53.46
2022-07-27T12:12:16.216Z,54.45
2022-07-27T12:14:49.023Z,54.93
2022-07-27T12:17:22.065Z,55.01
2022-07-27T12:20:02.132Z,52.22
2022-07-27T12:22:38.251Z,51.36
2022-07-27T12:25:16.389Z,52.08
2022-07-27T12:27:58.493Z,51.13
2022-07-27T12:30:33.530Z,50.74
2022-07-27T12:33:03.522Z,53.13
2022-07-27T12:35:38.103Z,51.96
2022-07-27T12:38:10.899Z,52.63
2022-07-27T12:41:00.501Z,52.37
2022-07-27T12:43:32.357Z,52.09
2022-07-27T12:46:13.340Z,50.58
2022-07-27T12:48:44.386Z,48.32
2022-07-27T12:51:13.236Z,48.95
2022-07-27T12:53:42.029Z,49.40
2022-07-27T12:56:12.562Z,51.52
2022-07-27T12:58:41.575Z,49.23
2022-07-27T13:01:10.424Z,50.19
2022-07-27T13:03:39.420Z,49.79
2022-07-27T13:06:12.983Z,50.06
2022-07-27T13:08:43.894Z,49.27
2022-07-27T13:11:14.297Z,48.60
2022-07-27T13:13:46.170Z,47.89
2022-07-27T13:16:15.132Z,48.24
2022-07-27T13:18:44.061Z,49.07
2022-07-27T13:21:13.200Z,52.18
2022-07-27T13:23:42.316Z,56.41
2022-07-27T13:26:11.631Z,55.97
2022-07-27T13:28:42.089Z,57.48
2022-07-27T13:31:10.878Z,57.35
2022-07-27T13:33:40.257Z,57.69
2022-07-27T13:36:10.089Z,58.34
2022-07-27T13:38:39.170Z,58.51
2022-07-27T13:41:08.242Z,58.65
2022-07-27T13:43:37.355Z,58.34
2022-07-27T13:46:10.617Z,58.15
2022-07-27T13:48:39.646Z,56.43
2022-07-27T13:51:08.941Z,55.60
2022-07-27T13:53:37.906Z,54.17
2022-07-27T13:56:07.646Z,51.24
2022-07-27T13:58:38.334Z,47.72
2022-07-27T14:01:09.260Z,48.24
2022-07-27T14:03:38.717Z,50.27
2022-07-27T14:06:09.022Z,50.33
2022-07-27T14:08:38.298Z,51.82
2022-07-27T14:11:08.057Z,53.42
2022-07-27T14:13:37.456Z,56.47
2022-07-27T14:16:09.199Z,59.03
2022-07-27T14:18:38.874Z,59.69
2022-07-27T14:21:09.522Z,59.20
2022-07-27T14:23:42.132Z,57.94
2022-07-27T14:26:11.509Z,57.49
2022-07-27T14:28:43.406Z,55.72
2022-07-27T14:31:14.717Z,50.81
2022-07-27T14:33:43.896Z,50.78
2022-07-27T14:36:13.579Z,53.29
2022-07-27T14:38:44.382Z,53.51
2022-07-27T14:41:13.516Z,52.58
2022-07-27T14:43:42.585Z,53.53
2022-07-27T14:46:13.056Z,52.44
2022-07-27T14:49:05.319Z,51.93
2022-07-27T14:51:32.058Z,54.10
2022-07-27T14:54:00.828Z,54.18
2022-07-27T14:56:29.673Z,54.81
2022-07-27T14:58:58.655Z,51.98
2022-07-27T15:01:30.895Z,52.41
2022-07-27T15:03:59.695Z,53.67
2022-07-27T15:06:28.978Z,53.70
2022-07-27T15:08:58.401Z,55.94
2022-07-27T15:11:27.695Z,59.51
2022-07-27T15:13:57.873Z,61.21
2022-07-27T15:16:29.570Z,61.90
2022-07-27T15:18:58.748Z,61.39
2022-07-27T15:21:27.615Z,60.59
2022-07-27T15:23:56.828Z,59.93
2022-07-27T15:26:26.164Z,60.34
2022-07-27T15:28:57.314Z,60.76
2022-07-27T15:31:29.851Z,61.10
2022-07-27T15:33:58.769Z,59.99
2022-07-27T15:36:33.278Z,60.96
2022-07-27T15:39:05.677Z,60.82
2022-07-27T15:41:37.225Z,59.69
2022-07-27T15:44:06.749Z,58.88
2022-07-27T15:46:40.310Z,57.21
2022-07-27T15:49:10.420Z,54.01
2022-07-27T15:51:40.156Z,49.98
2022-07-27T15:54:09.201Z,47.49
2022-07-27T15:56:38.581Z,44.45
2022-07-27T15:59:07.714Z,41.92
2022-07-27T16:01:39.181Z,43.83
2022-07-27T16:04:09.943Z,44.95
2022-07-27T16:06:39.632Z,47.19
2022-07-27T16:09:10.782Z,49.86
2022-07-27T16:11:41.075Z,52.47
2022-07-27T16:14:10.601Z,54.74
2022-07-27T16:16:41.135Z,55.57
2022-07-27T16:19:14.348Z,55.17
2022-07-27T16:21:53.659Z,56.03
2022-07-27T16:24:29.113Z,53.83
2022-07-27T16:27:01.673Z,55.45
2022-07-27T16:29:33.514Z,56.53
2022-07-27T16:32:04.388Z,57.55
2022-07-27T16:34:40.095Z,58.08
2022-07-27T16:37:12.977Z,58.68
2022-07-27T16:39:44.828Z,58.07
2022-07-27T16:42:14.015Z,54.62
2022-07-27T16:44:43.111Z,51.98
2022-07-27T16:47:13.458Z,53.02
2022-07-27T16:49:42.853Z,54.44
2022-07-27T16:52:14.000Z,56.22
2022-07-27T16:54:43.343Z,57.32
2022-07-27T16:57:12.319Z,58.39
2022-07-27T16:59:43.283Z,59.52
2022-07-27T17:02:14.007Z,58.50
2022-07-27T17:04:43.864Z,57.21
2022-07-27T17:07:13.062Z,56.57
2022-07-27T17:09:43.218Z,56.04
2022-07-27T17:12:17.155Z,55.99
2022-07-27T17:14:47.425Z,54.88
2022-07-27T17:17:18.154Z,53.58
2022-07-27T17:19:47.406Z,51.35
2022-07-27T17:22:16.901Z,52.78
2022-07-27T17:24:47.690Z,55.94
2022-07-27T17:27:16.520Z,57.52
2022-07-27T17:29:46.589Z,58.50
2022-07-27T17:32:17.238Z,59.09
2022-07-27T17:34:50.168Z,60.73
2022-07-27T17:37:20.024Z,59.89
2022-07-27T17:39:50.355Z,59.82
2022-07-27T17:42:23.458Z,60.47
2022-07-27T17:44:54.257Z,60.67
2022-07-27T17:47:27.631Z,62.77
2022-07-27T17:49:57.902Z,63.79
2022-07-27T17:52:27.654Z,65.15
2022-07-27T17:54:58.804Z,63.36
2022-07-27T17:57:28.263Z,64.23
2022-07-27T17:59:57.656Z,65.80
2022-07-27T18:02:29.434Z,67.36
2022-07-27T18:05:00.254Z,68.15
2022-07-27T18:07:29.539Z,66.19
2022-07-27T18:10:10.611Z,67.16
2022-07-27T18:12:39.790Z,68.84
2022-07-27T18:15:28.034Z,70.65
2022-07-27T18:17:58.212Z,70.01
2022-07-27T18:20:27.634Z,70.63
2022-07-27T18:22:56.544Z,70.91
2022-07-27T18:25:25.826Z,69.55
2022-07-27T18:27:55.941Z,69.58
2022-07-27T18:30:24.965Z,69.82
2022-07-27T18:32:54.162Z,70.69
2022-07-27T18:35:25.716Z,71.90
2022-07-27T18:37:58.945Z,71.70
2022-07-27T18:40:28.980Z,71.34
2022-07-27T18:42:58.243Z,70.97
2022-07-27T18:45:34.750Z,71.39
2022-07-27T18:48:03.967Z,72.13
2022-07-27T18:50:45.657Z,73.38
2022-07-27T18:53:18.553Z,73.37
2022-07-27T18:55:57.171Z,74.29
2022-07-27T18:58:27.836Z,74.91
2022-07-27T19:00:58.552Z,75.52
2022-07-27T19:03:28.891Z,75.60
2022-07-27T19:05:59.776Z,75.44
2022-07-27T19:08:28.897Z,75.43
2022-07-27T19:10:58.030Z,74.98
2022-07-27T19:13:30.762Z,75.30
2022-07-27T19:16:02.361Z,74.37
2022-07-27T19:18:31.993Z,74.75
2022-07-27T19:21:02.353Z,74.89
2022-07-27T19:23:31.247Z,75.50
2022-07-27T19:26:00.733Z,75.34
2022-07-27T19:28:33.457Z,74.95
2022-07-27T19:31:02.760Z,74.78
2022-07-27T19:33:32.006Z,75.01
2022-07-27T19:36:04.055Z,74.97
2022-07-27T19:38:36.982Z,75.26
2022-07-27T19:41:06.267Z,75.83
2022-07-27T19:43:35.420Z,76.62
2022-07-27T19:46:04.358Z,76.53
2022-07-27T19:48:33.378Z,76.45
2022-07-27T19:51:07.020Z,76.82
2022-07-27T19:53:36.647Z,77.29
2022-07-27T19:56:06.621Z,77.42
2022-07-27T19:58:35.615Z,76.29
2022-07-27T20:01:04.834Z,76.27
2022-07-27T20:03:52.529Z,75.76
2022-07-27T20:06:28.467Z,76.20
2022-07-27T20:09:00.056Z,76.00
2022-07-27T20:11:30.895Z,76.24
2022-07-27T20:14:02.965Z,74.53
2022-07-27T20:16:34.488Z,72.54
2022-07-27T20:19:03.874Z,70.17
2022-07-27T20:21:36.726Z,68.51
2022-07-27T20:24:05.996Z,67.28
2022-07-27T20:26:35.377Z,66.59
2022-07-27T20:29:05.481Z,65.45
2022-07-27T20:31:36.437Z,64.75
2022-07-27T20:34:08.310Z,64.96
2022-07-27T20:36:41.922Z,64.91
2022-07-27T20:39:15.321Z,66.13
2022-07-27T20:41:46.519Z,65.54
2022-07-27T20:44:15.857Z,64.97
2022-07-27T20:46:46.327Z,65.81
2022-07-27T20:49:16.535Z,66.47
2022-07-27T20:51:47.613Z,66.56
2022-07-27T20:54:16.564Z,66.62
2022-07-27T20:56:45.928Z,67.59
2022-07-27T20:59:16.695Z,67.55
2022-07-27T21:01:46.604Z,68.65
2022-07-27T21:04:15.750Z,68.18
2022-07-27T21:06:44.618Z,67.31
2022-07-27T21:09:15.547Z,67.42
2022-07-27T21:11:45.201Z,67.54
2022-07-27T21:14:14.564Z,68.45
2022-07-27T21:16:43.805Z,68.97
2022-07-27T21:19:13.510Z,70.08
2022-07-27T21:21:44.013Z,69.87
2022-07-27T21:24:18.404Z,70.45
2022-07-27T21:26:53.166Z,70.52
2022-07-27T21:29:23.991Z,70.16
2022-07-27T21:31:53.349Z,69.82
2022-07-27T21:34:23.383Z,70.73
2022-07-27T21:36:52.806Z,70.64
2022-07-27T21:39:24.288Z,71.30
2022-07-27T21:41:57.197Z,71.39
2022-07-27T21:44:28.921Z,72.11
2022-07-27T21:46:58.383Z,72.09
2022-07-27T21:49:34.164Z,72.48
2022-07-27T21:52:04.115Z,72.57
2022-07-27T21:54:34.461Z,72.74
2022-07-27T21:57:03.332Z,73.63
2022-07-27T21:59:32.515Z,73.92
2022-07-27T22:02:01.932Z,74.33
2022-07-27T22:04:30.928Z,75.05
2022-07-27T22:07:00.939Z,74.15
2022-07-27T22:09:30.172Z,74.72
2022-07-27T22:12:00.879Z,75.48
2022-07-27T22:14:30.496Z,76.37
2022-07-27T22:17:00.594Z,76.67
2022-07-27T22:19:30.644Z,76.38
2022-07-27T22:21:59.822Z,76.66
2022-07-27T22:24:28.681Z,75.97
2022-07-27T22:27:00.209Z,74.93
2022-07-27T22:29:29.394Z,74.70
2022-07-27T22:31:58.471Z,74.64
2022-07-27T22:34:30.657Z,74.06
2022-07-27T22:37:00.823Z,74.24
2022-07-27T22:39:30.145Z,73.72
2022-07-27T22:42:00.712Z,74.12
2022-07-27T22:44:29.592Z,74.89
2022-07-27T22:46:58.848Z,75.69
2022-07-27T22:49:28.311Z,75.82
2022-07-27T22:51:58.020Z,76.33
2022-07-27T22:54:27.037Z,75.90
2022-07-27T22:56:56.266Z,74.99
2022-07-27T22:59:27.098Z,75.04
2022-07-27T23:01:56.886Z,75.39
2022-07-27T23:04:26.202Z,76.33
2022-07-27T23:06:56.730Z,76.38
2022-07-27T23:09:26.637Z,76.68
2022-07-27T23:11:56.743Z,77.27
2022-07-27T23:14:27.684Z,78.04
2022-07-27T23:16:56.802Z,78.92
2022-07-27T23:19:26.225Z,79.85
2022-07-27T23:22:01.130Z,80.56
2022-07-27T23:24:31.217Z,81.52
2022-07-27T23:27:00.519Z,82.75
2022-07-27T23:29:34.583Z,83.89
2022-07-27T23:32:04.855Z,84.82
2022-07-27T23:34:35.722Z,85.85
2022-07-27T23:37:04.627Z,86.70
2022-07-27T23:39:33.368Z,86.29
2022-07-27T23:42:03.221Z,86.11
2022-07-27T23:44:33.877Z,86.13
2022-07-27T23:47:03.039Z,84.48
2022-07-27T23:49:32.448Z,81.32
2022-07-27T23:52:03.102Z,82.33
2022-07-27T23:54:32.556Z,82.87
2022-07-27T23:57:01.441Z,84.02
2022-07-27T23:59:30.060Z,83.52
